VE-0143 weather

Muelle Seco Heliport
Puerto La Cruz, Anzoategui, Venezuela

Public forecast

Using degrees Celsius for public forecast. Weather courtesy of forecast.io.

METAR (pilot weather report)

Report is more than 6 hours old.

Closest report is General José Antonio Anzoategui International Airport, 8.3 nm (15.4 km) SSW. Retrieved 2018/10/22 20:00 UTC (5 months ago):

SVBC 222000Z /////KT 9000 DZBKN020 25/25 Q1008

TAF (pilot weather forecast)

Forecast is more than 12 hours old.

Closest forecast is General José Antonio Anzoategui International Airport, 8.3 nm (15.4 km) SSW. Retrieved 2019/03/18 18:03 UTC (3 days ago):

TAF SVBC 182200Z 1818/1918 14005KT 9999 SCT016 TX30/18Z TN23/07Z BECMG 1900/1904 06003KT 9999 SCT100